Terminal Aerodrome Forecast
Issued by NWS North Platte, NE

Home | Current Version | Previous Version | Graphics & Text | Print | Product List | Glossary On
Versions: 1 2 3 4 5 6 7 8 9 10 11 12 13 14 15 16 17 18 19 20 21 22
000
FTUS43 KLBF 231120
TAFVTN
TAF
KVTN 231120Z 2312/2412 20011KT P6SM SKC
     FM231400 20017G24KT P6SM FEW250
     FM231700 20023G32KT P6SM FEW200
     FM240200 18017G24KT P6SM SCT250
     FM240800 19013G19KT P6SM BKN200=

USA.gov is the U.S. government's official web portal to all federal, state and local government web resources and services.